Time;durP1;ratioP1;P1;durP2;ratioP2;P2;SDS_P1;SDS_P2;PMS_P1;PMS_P2;Temp;Humidity;BMP_temperature;BMP_pressure;BME280_temperature;BME280_humidity;BME280_pressure;Samples;Min_cycle;Max_cycle;Signal;HPM_P1;HPM_P2
2023/04/30 00:00:12;;;;;;;4.18;1.25;;;11.30;99.90;;;;;;5030640;28;20049;-34
2023/04/30 00:02:38;;;;;;;3.30;1.50;;;11.30;99.90;;;;;;5045810;28;20101;-34
2023/04/30 00:05:04;;;;;;;2.85;1.02;;;11.20;99.90;;;;;;5035999;28;20065;-34
2023/04/30 00:07:30;;;;;;;3.42;1.08;;;11.20;99.90;;;;;;5040275;28;20056;-34
2023/04/30 00:09:56;;;;;;;4.05;1.33;;;11.20;99.90;;;;;;5035068;28;20442;-34
2023/04/30 00:12:22;;;;;;;1.85;1.10;;;11.10;99.90;;;;;;5042280;28;20049;-34
2023/04/30 00:14:48;;;;;;;3.58;1.60;;;11.00;99.90;;;;;;5045477;28;20081;-34
2023/04/30 00:17:14;;;;;;;6.20;1.70;;;11.00;99.90;;;;;;5030290;28;20076;-34
2023/04/30 00:19:41;;;;;;;3.47;1.20;;;11.00;99.90;;;;;;5029357;28;20068;-34
2023/04/30 00:22:07;;;;;;;2.17;1.27;;;10.90;99.90;;;;;;5030273;28;20048;-34
2023/04/30 00:24:32;;;;;;;4.10;1.55;;;10.90;99.90;;;;;;5037581;28;20061;-34
2023/04/30 00:26:58;;;;;;;3.42;1.48;;;10.80;99.90;;;;;;5030030;28;20053;-34
2023/04/30 00:29:24;;;;;;;2.58;1.45;;;10.80;99.90;;;;;;5030485;28;20091;-34
2023/04/30 00:31:49;;;;;;;3.83;1.67;;;10.70;99.90;;;;;;5029081;28;20431;-34
2023/04/30 00:34:15;;;;;;;4.50;1.70;;;10.70;99.90;;;;;;5029742;28;20045;-34
2023/04/30 00:36:40;;;;;;;3.47;1.58;;;10.70;99.90;;;;;;5028767;28;20141;-34
2023/04/30 00:39:06;;;;;;;3.67;1.30;;;10.60;99.90;;;;;;5045049;28;20049;-34
2023/04/30 00:41:34;;;;;;;5.10;1.10;;;10.60;99.90;;;;;;5046360;28;20065;-34
2023/04/30 00:44:01;;;;;;;4.32;1.48;;;10.60;99.90;;;;;;5049207;28;20053;-34
2023/04/30 00:46:27;;;;;;;9.88;2.00;;;10.50;99.90;;;;;;5049082;28;20135;-34
2023/04/30 00:48:53;;;;;;;4.32;1.35;;;10.30;99.90;;;;;;5049220;28;20187;-34
2023/04/30 00:51:19;;;;;;;3.95;1.33;;;10.20;99.90;;;;;;5049446;28;20140;-35
2023/04/30 00:53:45;;;;;;;5.47;1.70;;;10.00;99.90;;;;;;5049007;28;20558;-33
2023/04/30 00:56:13;;;;;;;3.67;1.65;;;9.90;99.90;;;;;;5048710;28;20080;-35
2023/04/30 00:58:39;;;;;;;5.07;1.58;;;9.80;99.90;;;;;;5039179;28;20057;-35
2023/04/30 01:01:05;;;;;;;5.15;1.83;;;9.80;99.90;;;;;;5029307;28;20084;-35
2023/04/30 01:03:31;;;;;;;7.53;2.33;;;9.70;99.90;;;;;;5029453;28;20037;-35
2023/04/30 01:05:57;;;;;;;5.72;1.75;;;9.70;99.90;;;;;;5037140;28;20064;-33
2023/04/30 01:08:23;;;;;;;3.33;1.77;;;9.60;99.90;;;;;;5029303;28;20057;-35
2023/04/30 01:11:01;;;;;;;5.35;1.45;;;9.50;99.90;;;;;;5028638;28;20523;-35
2023/04/30 01:13:30;;;;;;;6.05;1.77;;;9.50;99.90;;;;;;5037548;28;20110;-34
2023/04/30 01:16:05;;;;;;;5.25;1.55;;;9.40;99.90;;;;;;5048928;28;20053;-35
2023/04/30 01:18:38;;;;;;;4.55;1.65;;;9.40;99.90;;;;;;5036049;28;20075;-34
2023/04/30 01:21:04;;;;;;;8.07;2.08;;;9.40;99.90;;;;;;5036955;28;20084;-36
2023/04/30 01:23:49;;;;;;;7.20;2.40;;;9.30;99.90;;;;;;5029140;28;20057;-34
2023/04/30 01:26:28;;;;;;;4.60;1.83;;;9.20;99.90;;;;;;5036642;28;20049;-34
2023/04/30 01:28:58;;;;;;;8.52;2.20;;;9.20;99.90;;;;;;5029491;28;20131;-34
2023/04/30 01:31:23;;;;;;;4.95;2.20;;;9.10;99.90;;;;;;5044138;28;20053;-34
2023/04/30 01:33:49;;;;;;;6.32;2.40;;;9.10;99.90;;;;;;5044165;28;20072;-34
2023/04/30 01:37:02;;;;;;;8.55;2.08;;;9.00;99.90;;;;;;5036718;28;20057;-34
2023/04/30 01:39:55;;;;;;;8.07;2.15;;;9.00;99.90;;;;;;5038248;28;20071;-34
2023/04/30 01:42:27;;;;;;;7.68;1.73;;;8.90;99.90;;;;;;5047916;28;20140;-34
2023/04/30 01:45:08;;;;;;;4.13;1.67;;;8.90;99.90;;;;;;5028868;28;20048;-36
2023/04/30 01:47:52;;;;;;;3.53;1.40;;;8.80;99.90;;;;;;5031247;28;20136;-35
2023/04/30 01:50:33;;;;;;;5.63;1.80;;;8.80;99.90;;;;;;5046142;28;20041;-35
2023/04/30 01:53:01;;;;;;;5.72;1.88;;;8.70;99.90;;;;;;5031088;28;20043;-34
2023/04/30 01:55:36;;;;;;;4.95;2.00;;;8.70;99.90;;;;;;5028059;28;20124;-35
2023/04/30 01:58:06;;;;;;;6.93;2.05;;;8.70;99.90;;;;;;5044094;28;20044;-36
2023/04/30 02:00:32;;;;;;;6.47;2.15;;;8.60;99.90;;;;;;5045181;28;20403;-34
2023/04/30 02:02:58;;;;;;;8.48;2.25;;;8.70;99.90;;;;;;5035662;28;20048;-34
2023/04/30 02:05:24;;;;;;;5.38;2.33;;;8.70;99.90;;;;;;5046188;28;20387;-34
2023/04/30 02:07:51;;;;;;;6.90;2.40;;;8.60;99.90;;;;;;5034072;28;20056;-34
2023/04/30 02:10:23;;;;;;;6.43;2.17;;;8.60;99.90;;;;;;5040797;28;20107;-34
2023/04/30 02:12:49;;;;;;;9.85;3.03;;;8.60;99.90;;;;;;5037350;28;20494;-34
2023/04/30 02:15:15;;;;;;;5.85;2.00;;;8.60;99.90;;;;;;5043173;28;20056;-34
2023/04/30 02:17:40;;;;;;;6.10;1.77;;;8.50;99.90;;;;;;5036338;28;20052;-34
2023/04/30 02:20:07;;;;;;;5.47;1.85;;;8.50;99.90;;;;;;5036789;28;20150;-34
2023/04/30 02:22:33;;;;;;;6.25;1.90;;;8.40;99.90;;;;;;5031427;28;20083;-34
2023/04/30 02:24:59;;;;;;;6.15;2.00;;;8.40;99.90;;;;;;5040475;28;20144;-34
2023/04/30 02:27:25;;;;;;;9.90;2.53;;;8.30;99.90;;;;;;5031726;28;20130;-34
2023/04/30 02:29:52;;;;;;;7.75;2.22;;;8.20;99.90;;;;;;5045915;28;20510;-34
2023/04/30 02:32:18;;;;;;;5.00;2.10;;;8.20;99.90;;;;;;5042435;28;20555;-35
2023/04/30 02:34:44;;;;;;;5.78;2.05;;;8.20;99.90;;;;;;5044437;28;20069;-34
2023/04/30 02:37:10;;;;;;;6.97;2.03;;;;;;;;;;5036164;28;20133;-34
2023/04/30 02:39:36;;;;;;;6.25;1.95;;;8.10;99.90;;;;;;5039866;28;20459;-34
2023/04/30 02:42:02;;;;;;;5.40;1.83;;;8.00;99.90;;;;;;5031763;28;20053;-34
2023/04/30 02:44:28;;;;;;;6.30;2.28;;;8.00;99.90;;;;;;5031605;28;20052;-34
2023/04/30 02:46:53;;;;;;;6.28;2.42;;;8.00;99.90;;;;;;5031698;28;20139;-34
2023/04/30 02:49:19;;;;;;;8.98;2.72;;;8.00;99.90;;;;;;5031370;28;20496;-34
2023/04/30 02:51:45;;;;;;;5.85;2.03;;;8.00;99.90;;;;;;5031672;28;20118;-34
2023/04/30 02:54:10;;;;;;;7.20;1.95;;;7.90;99.90;;;;;;5038493;28;20064;-34
2023/04/30 02:56:38;;;;;;;5.57;2.25;;;8.00;99.90;;;;;;5040026;28;20147;-34
2023/04/30 02:59:03;;;;;;;7.00;2.28;;;8.00;99.90;;;;;;5031583;28;20046;-35
2023/04/30 03:01:29;;;;;;;8.70;2.33;;;7.90;99.90;;;;;;5031277;28;20423;-33
2023/04/30 03:03:55;;;;;;;4.70;2.08;;;7.90;99.90;;;;;;5031817;28;20060;-33
2023/04/30 03:06:20;;;;;;;6.80;2.08;;;7.90;99.90;;;;;;5029273;28;20072;-44
2023/04/30 03:08:47;;;;;;;5.95;2.10;;;7.90;99.90;;;;;;5055237;28;20144;-35
2023/04/30 03:11:12;;;;;;;7.60;2.55;;;7.90;99.90;;;;;;5038900;28;20387;-35
2023/04/30 03:13:38;;;;;;;11.07;2.53;;;7.90;99.90;;;;;;5031011;28;20068;-33
2023/04/30 03:16:04;;;;;;;7.30;2.33;;;7.90;99.90;;;;;;5031264;28;20093;-33
2023/04/30 03:18:30;;;;;;;7.63;2.30;;;7.80;99.90;;;;;;5030841;28;20137;-34
2023/04/30 03:20:56;;;;;;;5.78;2.20;;;7.80;99.90;;;;;;5031182;28;20483;-33
2023/04/30 03:23:22;;;;;;;4.60;2.40;;;7.80;99.90;;;;;;5031253;28;20052;-33
2023/04/30 03:25:48;;;;;;;4.78;2.03;;;7.80;99.90;;;;;;5039237;28;20081;-34
2023/04/30 03:28:14;;;;;;;8.20;2.95;;;7.80;99.90;;;;;;5031051;28;20057;-33
2023/04/30 03:30:40;;;;;;;7.07;3.63;;;7.80;99.90;;;;;;5033668;28;20126;-33
2023/04/30 03:33:06;;;;;;;6.13;2.33;;;7.70;99.90;;;;;;5051183;28;20630;-33
2023/04/30 03:35:33;;;;;;;9.18;3.17;;;7.70;99.90;;;;;;5040068;28;20057;-34
2023/04/30 03:37:59;;;;;;;6.85;2.58;;;7.70;99.90;;;;;;5031159;28;20049;-33
2023/04/30 03:40:25;;;;;;;8.60;3.15;;;7.70;99.90;;;;;;5046558;28;20128;-35
2023/04/30 03:42:50;;;;;;;15.15;4.38;;;7.60;99.90;;;;;;5030562;28;20140;-34
2023/04/30 03:45:16;;;;;;;8.93;2.60;;;7.50;99.90;;;;;;5046976;28;20067;-34
2023/04/30 03:47:42;;;;;;;7.18;2.85;;;7.40;99.90;;;;;;5050088;28;20061;-33
2023/04/30 03:50:08;;;;;;;7.63;2.58;;;7.40;99.90;;;;;;5036242;28;20041;-33
2023/04/30 03:52:35;;;;;;;9.50;3.08;;;7.40;99.90;;;;;;5029513;28;20049;-33
2023/04/30 03:55:04;;;;;;;9.38;2.92;;;7.40;99.90;;;;;;5030665;28;20049;-33
2023/04/30 03:57:31;;;;;;;7.88;2.92;;;7.40;99.90;;;;;;5029877;28;20080;-33
2023/04/30 03:59:57;;;;;;;6.43;2.92;;;7.40;99.90;;;;;;5035140;28;20132;-33
2023/04/30 04:02:23;;;;;;;6.15;2.50;;;7.30;99.90;;;;;;5042607;28;20124;-34
2023/04/30 04:04:50;;;;;;;5.97;2.85;;;7.30;99.90;;;;;;5046222;28;20649;-34
2023/04/30 04:07:15;;;;;;;4.88;2.67;;;7.20;99.90;;;;;;5030648;28;20049;-34
2023/04/30 04:09:41;;;;;;;6.25;2.53;;;7.20;99.90;;;;;;5029747;28;20465;-34
2023/04/30 04:12:07;;;;;;;4.38;2.47;;;7.20;99.90;;;;;;5030442;28;20519;-34
2023/04/30 04:14:32;;;;;;;5.70;3.13;;;7.20;99.90;;;;;;5046773;28;20069;-34
2023/04/30 04:17:04;;;;;;;5.72;2.70;;;7.20;99.90;;;;;;5050278;28;20049;-34
2023/04/30 04:19:30;;;;;;;6.28;2.75;;;7.20;99.90;;;;;;5040557;28;20052;-33
2023/04/30 04:21:56;;;;;;;7.30;2.88;;;7.20;99.90;;;;;;5030166;28;20439;-33
2023/04/30 04:24:24;;;;;;;9.75;3.00;;;7.20;99.90;;;;;;5029855;28;20132;-33
2023/04/30 04:26:50;;;;;;;6.13;2.97;;;7.20;99.90;;;;;;5037727;28;20144;-34
2023/04/30 04:29:15;;;;;;;5.93;2.67;;;7.20;99.90;;;;;;5012387;28;20133;-34
2023/04/30 04:31:41;;;;;;;6.13;2.50;;;7.20;99.90;;;;;;5037694;28;20081;-34
2023/04/30 04:34:07;;;;;;;5.00;2.70;;;7.20;99.90;;;;;;5037789;28;20049;-34
2023/04/30 04:36:33;;;;;;;8.98;2.65;;;7.10;99.90;;;;;;5029762;28;20145;-34
2023/04/30 04:39:02;;;;;;;6.75;2.90;;;7.10;99.90;;;;;;5041466;28;20049;-34
2023/04/30 04:41:32;;;;;;;5.45;3.03;;;7.10;99.90;;;;;;5049599;28;20045;-34
2023/04/30 04:43:58;;;;;;;6.72;3.33;;;7.20;99.90;;;;;;5029418;28;20081;-34
2023/04/30 04:46:25;;;;;;;6.32;2.60;;;7.20;99.90;;;;;;5029938;28;20507;-34
2023/04/30 04:48:53;;;;;;;7.07;3.50;;;7.20;99.90;;;;;;5040263;28;20533;-35
2023/04/30 04:51:19;;;;;;;7.40;3.47;;;7.20;99.90;;;;;;5026103;28;20084;-35
2023/04/30 04:53:45;;;;;;;8.38;3.08;;;7.10;99.90;;;;;;5043527;28;20540;-34
2023/04/30 04:56:11;;;;;;;8.95;3.25;;;7.10;99.90;;;;;;5035573;28;20065;-34
2023/04/30 04:58:37;;;;;;;8.00;3.50;;;7.10;99.90;;;;;;5029801;28;20049;-34
2023/04/30 05:01:04;;;;;;;5.20;2.70;;;7.10;99.90;;;;;;5049046;28;20056;-34
2023/04/30 05:03:31;;;;;;;6.25;3.30;;;7.10;99.90;;;;;;5031805;28;20056;-34
2023/04/30 05:05:57;;;;;;;6.75;2.55;;;7.10;99.90;;;;;;5045403;28;20057;-34
2023/04/30 05:08:23;;;;;;;6.13;2.58;;;7.10;99.90;;;;;;5029363;28;20072;-34
2023/04/30 05:10:49;;;;;;;8.23;3.20;;;7.10;99.90;;;;;;5037004;28;20541;-34
2023/04/30 05:13:15;;;;;;;6.38;2.80;;;7.10;99.90;;;;;;5029409;28;20480;-34
2023/04/30 05:15:41;;;;;;;8.82;3.75;;;7.10;99.90;;;;;;5028721;28;20057;-34
2023/04/30 05:18:06;;;;;;;6.50;2.65;;;7.20;99.90;;;;;;5042303;28;20049;-34
2023/04/30 05:20:32;;;;;;;5.20;2.55;;;7.20;99.90;;;;;;5031813;28;20419;-35
2023/04/30 05:22:58;;;;;;;6.82;3.58;;;7.20;99.90;;;;;;5040375;28;20056;-34
2023/04/30 05:25:23;;;;;;;6.78;2.85;;;7.20;99.90;;;;;;5047697;28;20045;-34
2023/04/30 05:27:49;;;;;;;5.10;2.65;;;7.30;99.90;;;;;;5030201;28;20056;-34
2023/04/30 05:30:14;;;;;;;7.10;2.97;;;7.30;99.90;;;;;;5028610;28;20429;-34
2023/04/30 05:32:41;;;;;;;11.25;3.17;;;7.30;99.90;;;;;;5028903;28;20514;-34
2023/04/30 05:35:07;;;;;;;5.88;2.80;;;7.40;99.90;;;;;;5033712;28;20521;-35
2023/04/30 05:37:33;;;;;;;5.72;2.83;;;7.50;99.90;;;;;;5041348;28;20069;-35
2023/04/30 05:39:58;;;;;;;5.85;2.72;;;7.50;99.90;;;;;;5028743;28;20053;-35
2023/04/30 05:42:24;;;;;;;7.63;3.60;;;7.60;99.90;;;;;;5035864;28;20087;-34
2023/04/30 05:44:50;;;;;;;6.57;3.33;;;7.60;99.90;;;;;;5034526;28;20518;-35
2023/04/30 05:47:15;;;;;;;6.72;3.35;;;7.70;99.90;;;;;;5047796;28;20041;-35
2023/04/30 05:49:41;;;;;;;7.38;3.08;;;7.80;99.90;;;;;;5032160;28;20045;-34
2023/04/30 05:52:07;;;;;;;8.98;3.92;;;7.80;99.90;;;;;;5045778;28;20049;-34
2023/04/30 05:54:32;;;;;;;7.55;3.03;;;8.00;99.90;;;;;;5052429;28;20159;-35
2023/04/30 05:56:58;;;;;;;8.57;2.67;;;8.00;99.90;;;;;;5052491;28;20052;-35
2023/04/30 05:59:24;;;;;;;8.70;2.67;;;8.10;99.90;;;;;;5038227;28;20510;-34
2023/04/30 06:01:50;;;;;;;5.50;2.85;;;8.20;99.90;;;;;;5034008;28;20049;-35
2023/04/30 06:04:16;;;;;;;6.22;2.83;;;8.20;99.90;;;;;;5038948;28;20045;-35
2023/04/30 06:06:42;;;;;;;9.40;2.72;;;8.30;99.90;;;;;;5040374;28;20056;-34
2023/04/30 06:09:07;;;;;;;10.13;2.92;;;8.30;99.90;;;;;;5040447;28;20140;-34
2023/04/30 06:11:33;;;;;;;7.63;2.65;;;8.40;99.90;;;;;;5032463;28;20411;-34
2023/04/30 06:13:59;;;;;;;7.38;2.90;;;8.40;99.90;;;;;;5035124;28;20106;-35
2023/04/30 06:16:25;;;;;;;6.38;2.35;;;8.50;99.90;;;;;;5052256;28;20053;-35
2023/04/30 06:18:50;;;;;;;7.47;2.20;;;8.50;99.90;;;;;;5051431;28;20502;-35
2023/04/30 06:21:16;;;;;;;12.65;2.85;;;8.60;99.90;;;;;;5039255;28;20518;-35
2023/04/30 06:23:42;;;;;;;8.20;2.55;;;8.60;99.90;;;;;;5040123;28;20056;-40
2023/04/30 06:26:07;;;;;;;6.53;2.28;;;8.70;99.90;;;;;;5040576;28;20144;-35
2023/04/30 06:28:33;;;;;;;8.98;2.60;;;8.80;99.90;;;;;;5032603;28;20491;-35
2023/04/30 06:30:58;;;;;;;5.38;2.30;;;8.80;99.90;;;;;;5031157;28;20057;-34
2023/04/30 06:33:24;;;;;;;8.57;2.53;;;8.80;99.90;;;;;;5032600;28;20465;-35
2023/04/30 06:35:53;;;;;;;12.60;2.47;;;8.90;99.90;;;;;;5031375;28;20057;-34
2023/04/30 06:38:19;;;;;;;5.97;1.92;;;8.90;99.90;;;;;;5032145;28;20041;-35
2023/04/30 06:40:44;;;;;;;5.25;1.80;;;9.00;99.90;;;;;;5043616;28;20059;-35
2023/04/30 06:43:10;;;;;;;7.07;2.00;;;9.10;99.90;;;;;;5039647;28;20053;-35
2023/04/30 06:45:37;;;;;;;4.07;1.95;;;9.10;99.90;;;;;;5031730;28;20060;-34
2023/04/30 06:48:02;;;;;;;7.15;2.40;;;9.20;99.90;;;;;;5046416;28;20057;-35
2023/04/30 06:50:28;;;;;;;4.80;1.63;;;9.20;99.90;;;;;;5032099;28;20049;-34
2023/04/30 06:52:54;;;;;;;6.65;1.77;;;9.20;99.90;;;;;;5031213;28;20111;-34
2023/04/30 06:55:20;;;;;;;5.07;1.77;;;9.30;99.90;;;;;;5039312;28;20089;-35
2023/04/30 06:57:46;;;;;;;5.15;1.50;;;9.40;99.90;;;;;;5031274;28;20045;-35
2023/04/30 07:00:14;;;;;;;6.90;2.13;;;9.40;99.90;;;;;;5031497;28;20399;-35
2023/04/30 07:02:40;;;;;;;5.38;1.67;;;9.50;99.90;;;;;;5039316;28;20048;-34
2023/04/30 07:05:06;;;;;;;5.75;1.67;;;9.50;99.90;;;;;;5026152;28;20466;-35
2023/04/30 07:07:32;;;;;;;7.57;1.63;;;9.60;99.90;;;;;;5045431;28;20088;-35
2023/04/30 07:09:58;;;;;;;4.70;1.65;;;9.70;99.90;;;;;;5032498;28;20050;-35
2023/04/30 07:12:23;;;;;;;6.05;1.48;;;9.80;99.90;;;;;;5038134;28;20083;-35
2023/04/30 07:14:49;;;;;;;3.88;1.38;;;9.90;99.90;;;;;;5031015;28;20053;-34
2023/04/30 07:17:15;;;;;;;10.63;2.35;;;9.90;99.90;;;;;;5043368;28;20048;-34
2023/04/30 07:19:41;;;;;;;3.40;1.50;;;9.90;99.90;;;;;;5051612;28;20145;-35
2023/04/30 07:22:06;;;;;;;4.03;1.80;;;10.00;99.90;;;;;;5031310;28;20100;-34
2023/04/30 07:24:33;;;;;;;5.03;1.60;;;10.00;99.90;;;;;;5037641;28;20049;-35
2023/04/30 07:27:01;;;;;;;7.35;1.67;;;10.00;99.90;;;;;;5050464;28;20083;-35
2023/04/30 07:29:28;;;;;;;7.07;1.35;;;10.10;99.90;;;;;;5043661;28;20487;-34
2023/04/30 07:31:54;;;;;;;8.27;2.38;;;10.10;99.90;;;;;;5041072;28;20136;-34
2023/04/30 07:34:19;;;;;;;5.88;1.40;;;10.20;99.90;;;;;;5039361;28;20402;-35
2023/04/30 07:36:47;;;;;;;5.50;1.40;;;10.30;99.90;;;;;;5031076;28;20423;-35
2023/04/30 07:39:12;;;;;;;4.78;1.50;;;10.30;99.90;;;;;;5041522;28;20083;-34
2023/04/30 07:41:38;;;;;;;4.97;1.40;;;10.40;99.90;;;;;;5050876;28;20081;-36
2023/04/30 07:44:04;;;;;;;7.43;1.50;;;10.40;99.90;;;;;;5048345;28;20061;-36
2023/04/30 07:46:29;;;;;;;8.65;1.92;;;10.50;99.90;;;;;;5030609;28;20095;-36
2023/04/30 07:48:55;;;;;;;5.65;1.83;;;10.60;99.90;;;;;;5028945;28;20054;-36
2023/04/30 07:51:21;;;;;;;3.78;1.60;;;10.60;99.90;;;;;;5041622;28;20492;-35
2023/04/30 07:53:46;;;;;;;4.53;1.33;;;10.70;99.90;;;;;;5043165;28;20060;-36
2023/04/30 07:56:12;;;;;;;6.05;2.20;;;10.70;99.90;;;;;;5041058;28;20052;-36
2023/04/30 07:58:38;;;;;;;5.38;1.35;;;10.80;99.90;;;;;;5044193;28;20052;-36
2023/04/30 08:01:03;;;;;;;4.50;1.40;;;10.90;99.90;;;;;;5029825;28;20053;-36
2023/04/30 08:03:29;;;;;;;8.68;1.40;;;11.00;99.90;;;;;;5030422;28;20045;-36
2023/04/30 08:05:55;;;;;;;7.53;1.40;;;11.10;99.90;;;;;;5029418;28;20053;-36
2023/04/30 08:08:20;;;;;;;6.35;1.60;;;11.20;99.90;;;;;;5037654;28;20045;-36
2023/04/30 08:10:46;;;;;;;5.80;1.42;;;11.30;99.90;;;;;;5030055;28;20049;-36
2023/04/30 08:13:12;;;;;;;3.40;1.35;;;11.40;99.90;;;;;;5029636;28;20053;-36
2023/04/30 08:15:38;;;;;;;4.95;1.50;;;11.50;99.90;;;;;;5030032;28;20132;-35
2023/04/30 08:18:04;;;;;;;6.95;1.60;;;11.60;99.90;;;;;;5039089;28;20045;-36
2023/04/30 08:20:31;;;;;;;5.70;1.42;;;11.60;99.90;;;;;;5049770;28;20045;-36
2023/04/30 08:22:57;;;;;;;3.88;1.20;;;11.70;99.90;;;;;;5049216;28;20124;-36
2023/04/30 08:25:22;;;;;;;6.22;1.40;;;11.80;99.90;;;;;;5049653;28;20049;-36
2023/04/30 08:27:48;;;;;;;6.15;1.35;;;11.90;99.90;;;;;;5034619;28;20053;-36
2023/04/30 08:30:14;;;;;;;5.93;1.20;;;12.00;99.90;;;;;;5036656;28;20084;-36
2023/04/30 08:32:40;;;;;;;4.20;1.30;;;12.00;99.90;;;;;;5029600;28;20045;-35
2023/04/30 08:35:06;;;;;;;8.43;3.22;;;12.10;99.90;;;;;;5037515;28;20136;-35
2023/04/30 08:37:33;;;;;;;5.68;1.73;;;12.20;99.90;;;;;;5029672;28;20151;-36
2023/04/30 08:39:58;;;;;;;4.78;1.48;;;12.20;99.90;;;;;;5037683;28;20042;-35
2023/04/30 08:42:29;;;;;;;6.38;1.75;;;12.30;99.90;;;;;;5029615;28;20091;-35
2023/04/30 08:44:55;;;;;;;4.38;1.40;;;12.40;99.90;;;;;;5038209;28;20041;-36
2023/04/30 08:47:21;;;;;;;5.53;1.80;;;12.60;99.90;;;;;;5039959;28;20044;-36
2023/04/30 08:49:47;;;;;;;6.03;1.50;;;12.60;99.90;;;;;;5042342;28;20164;-36
2023/04/30 08:52:13;;;;;;;3.72;1.35;;;12.70;99.90;;;;;;5039655;28;20124;-35
2023/04/30 08:54:39;;;;;;;6.60;1.80;;;12.70;99.90;;;;;;5043787;28;20068;-36
2023/04/30 08:57:05;;;;;;;3.72;1.65;;;12.70;99.90;;;;;;5030001;28;20096;-35
2023/04/30 08:59:30;;;;;;;6.75;1.70;;;12.80;99.90;;;;;;5036294;28;20049;-36
2023/04/30 09:01:56;;;;;;;5.88;1.58;;;12.90;99.90;;;;;;5029748;28;20042;-36
2023/04/30 09:04:22;;;;;;;5.78;1.55;;;13.00;99.90;;;;;;5032268;28;20055;-35
2023/04/30 09:06:48;;;;;;;8.10;1.60;;;13.10;99.90;;;;;;5034094;28;20179;-36
2023/04/30 09:09:15;;;;;;;4.53;1.77;;;13.20;99.90;;;;;;5037149;28;20047;-36
2023/04/30 09:11:41;;;;;;;4.20;1.48;;;13.30;99.90;;;;;;5028969;28;20124;-36
2023/04/30 09:14:07;;;;;;;5.55;1.52;;;13.40;99.90;;;;;;5029092;28;20052;-35
2023/04/30 09:16:47;;;;;;;5.65;1.60;;;13.50;99.90;;;;;;5028989;28;20577;-36
2023/04/30 09:19:26;;;;;;;6.15;1.90;;;13.70;99.90;;;;;;5042804;28;20055;-36
2023/04/30 09:21:52;;;;;;;5.55;2.22;;;13.80;99.90;;;;;;5035811;28;20122;-36
2023/04/30 09:24:18;;;;;;;5.70;1.92;;;13.90;99.90;;;;;;5035207;28;20073;-35
2023/04/30 09:26:48;;;;;;;5.82;1.65;;;14.00;99.90;;;;;;5035783;28;20441;-36
2023/04/30 09:29:14;;;;;;;9.38;2.35;;;14.00;99.90;;;;;;5035427;28;20075;-36
2023/04/30 09:31:44;;;;;;;5.25;1.77;;;14.10;99.90;;;;;;5040955;28;20045;-36
2023/04/30 09:34:10;;;;;;;5.28;1.90;;;14.10;99.90;;;;;;5037586;28;20516;-34
2023/04/30 09:36:36;;;;;;;5.28;1.60;;;14.00;99.90;;;;;;5035709;28;20056;-34
2023/04/30 09:39:16;;;;;;;6.55;1.85;;;14.10;99.90;;;;;;5035429;28;20460;-34
2023/04/30 09:41:42;;;;;;;9.30;1.95;;;14.20;99.90;;;;;;5041335;28;20521;-34
2023/04/30 09:44:26;;;;;;;5.85;1.85;;;14.20;99.90;;;;;;5038058;28;20049;-34
2023/04/30 09:46:51;;;;;;;5.03;1.38;;;14.30;99.90;;;;;;5035547;28;20061;-35
2023/04/30 09:49:18;;;;;;;12.00;1.85;;;14.40;99.90;;;;;;5045646;28;20044;-35
2023/04/30 09:51:57;;;;;;;5.60;1.65;;;14.50;99.90;;;;;;5055577;28;20091;-37
2023/04/30 09:54:32;;;;;;;4.30;1.50;;;14.60;99.90;;;;;;5038117;28;20059;-37
2023/04/30 09:57:00;;;;;;;4.00;1.73;;;14.70;99.90;;;;;;5035478;28;20057;-37
2023/04/30 09:59:30;;;;;;;4.22;1.20;;;14.80;99.90;;;;;;5043523;28;20093;-37
2023/04/30 10:02:04;;;;;;;4.35;1.20;;;14.90;99.90;;;;;;5035091;28;20080;-36
2023/04/30 10:04:35;;;;;;;6.97;2.15;;;15.00;99.90;;;;;;5043477;28;20499;-37
2023/04/30 10:07:14;;;;;;;7.50;1.90;;;15.10;99.90;;;;;;5042899;28;20514;-37
2023/04/30 10:09:56;;;;;;;5.38;2.10;;;15.20;99.90;;;;;;5043623;28;20139;-37
2023/04/30 10:12:29;;;;;;;3.40;1.35;;;15.30;99.90;;;;;;5036311;28;20064;-36
2023/04/30 10:14:58;;;;;;;5.88;1.73;;;15.40;99.90;;;;;;5035431;28;20384;-37
2023/04/30 10:17:30;;;;;;;4.97;1.67;;;15.50;99.90;;;;;;5044347;28;20056;-36
2023/04/30 10:20:04;;;;;;;6.40;1.77;;;15.50;99.90;;;;;;5048933;28;20136;-37
2023/04/30 10:22:31;;;;;;;5.57;1.40;;;15.50;99.90;;;;;;5034154;28;20169;-37
2023/04/30 10:24:58;;;;;;;5.82;1.55;;;15.60;99.90;;;;;;5040864;28;20502;-36
2023/04/30 10:27:24;;;;;;;5.82;1.88;;;15.70;99.90;;;;;;5045729;28;20079;-36
2023/04/30 10:29:50;;;;;;;5.80;1.58;;;15.90;99.90;;;;;;5034652;28;20136;-37
2023/04/30 10:32:17;;;;;;;3.42;1.45;;;16.00;99.90;;;;;;5031825;28;20045;-37
2023/04/30 10:34:51;;;;;;;6.65;1.70;;;16.10;99.90;;;;;;5048094;28;20045;-37
2023/04/30 10:37:17;;;;;;;5.20;1.60;;;16.10;99.90;;;;;;5040185;28;20080;-36
2023/04/30 10:39:43;;;;;;;6.18;1.90;;;16.10;99.90;;;;;;5039614;28;20084;-36
2023/04/30 10:42:10;;;;;;;4.38;1.48;;;16.20;99.90;;;;;;5031799;28;20057;-37
2023/04/30 10:44:36;;;;;;;3.63;1.83;;;16.20;99.90;;;;;;5031586;28;20092;-37
2023/04/30 10:47:03;;;;;;;5.20;1.75;;;16.20;99.90;;;;;;5031844;28;20133;-37
2023/04/30 10:49:30;;;;;;;6.35;1.42;;;16.30;99.90;;;;;;5032559;28;20049;-37
2023/04/30 10:51:59;;;;;;;4.00;1.58;;;16.40;99.90;;;;;;5037691;28;20484;-37
2023/04/30 10:54:26;;;;;;;5.90;2.28;;;16.50;99.90;;;;;;5039942;28;20128;-36
2023/04/30 10:56:55;;;;;;;4.65;1.55;;;16.50;99.90;;;;;;5047378;28;20060;-37
2023/04/30 10:59:21;;;;;;;5.75;1.50;;;16.50;99.90;;;;;;5031439;28;20118;-37
2023/04/30 11:01:57;;;;;;;6.00;1.30;;;16.50;99.90;;;;;;5031400;28;20063;-37
2023/04/30 11:04:23;;;;;;;6.68;1.77;;;16.60;99.90;;;;;;5039072;28;20057;-36
2023/04/30 11:06:55;;;;;;;3.83;0.95;;;16.70;99.90;;;;;;5047936;28;20131;-37
2023/04/30 11:09:35;;;;;;;4.30;1.20;;;16.80;99.90;;;;;;5031311;28;20076;-37
2023/04/30 11:12:12;;;;;;;3.95;1.35;;;17.10;99.90;;;;;;5039441;28;20518;-37
2023/04/30 11:14:44;;;;;;;4.13;1.35;;;17.10;99.90;;;;;;5032443;28;20057;-36
2023/04/30 11:17:22;;;;;;;6.38;1.70;;;17.30;99.90;;;;;;5031258;28;20075;-36
2023/04/30 11:19:51;;;;;;;2.65;1.40;;;17.10;99.90;;;;;;5030582;28;20479;-35
2023/04/30 11:22:18;;;;;;;4.13;1.60;;;17.20;99.90;;;;;;5036875;28;20557;-35
2023/04/30 11:25:09;;;;;;;6.20;1.63;;;17.30;99.90;;;;;;5041493;28;20487;-35
2023/04/30 11:27:43;;;;;;;4.75;1.58;;;17.40;99.90;;;;;;5039637;28;20419;-36
2023/04/30 11:30:19;;;;;;;3.83;1.38;;;17.40;99.90;;;;;;5039060;28;20099;-37
2023/04/30 11:32:46;;;;;;;4.13;1.15;;;17.50;99.90;;;;;;5023955;28;20049;-33
2023/04/30 11:35:16;;;;;;;2.70;1.00;;;17.70;99.90;;;;;;5030682;28;20065;-35
2023/04/30 11:37:43;;;;;;;4.43;1.40;;;17.80;99.90;;;;;;5031623;28;20315;-36
2023/04/30 11:40:11;;;;;;;4.47;1.10;;;18.00;99.90;;;;;;5039016;28;20495;-36
2023/04/30 11:42:42;;;;;;;5.90;1.38;;;18.10;99.90;;;;;;5037843;28;20072;-36
2023/04/30 11:45:14;;;;;;;4.07;1.10;;;18.20;99.90;;;;;;5030593;28;20462;-36
2023/04/30 11:47:47;;;;;;;4.40;1.23;;;18.20;99.90;;;;;;5030777;28;20094;-36
2023/04/30 11:50:15;;;;;;;3.08;1.30;;;18.20;99.90;;;;;;5038179;28;20053;-36
2023/04/30 11:52:47;;;;;;;4.65;1.15;;;18.30;99.90;;;;;;5030977;28;20045;-36
2023/04/30 11:55:14;;;;;;;4.38;1.00;;;18.40;99.90;;;;;;5030055;28;20064;-36
2023/04/30 11:57:42;;;;;;;4.88;1.38;;;18.50;99.90;;;;;;5038369;28;20156;-36
2023/04/30 12:00:13;;;;;;;4.10;1.15;;;18.60;99.90;;;;;;5040751;28;20049;-36
2023/04/30 12:02:40;;;;;;;3.00;1.23;;;18.50;99.90;;;;;;5050312;28;20728;-36
2023/04/30 12:05:16;;;;;;;3.05;1.00;;;18.50;99.90;;;;;;5033212;28;20392;-36
2023/04/30 12:07:55;;;;;;;5.57;1.35;;;18.60;99.90;;;;;;5034532;28;20128;-36
2023/04/30 12:10:22;;;;;;;1.98;1.08;;;18.70;99.90;;;;;;5044024;28;20045;-36
2023/04/30 12:12:49;;;;;;;3.30;1.02;;;18.40;99.90;;;;;;5043624;28;20128;-36
2023/04/30 12:15:25;;;;;;;6.50;1.27;;;18.40;99.90;;;;;;5029946;28;20412;-36
2023/04/30 12:17:55;;;;;;;3.78;1.23;;;18.60;99.90;;;;;;5030355;28;20070;-36
2023/04/30 12:20:23;;;;;;;4.93;1.10;;;18.80;99.90;;;;;;5030023;28;20049;-36
2023/04/30 12:22:49;;;;;;;2.85;1.33;;;19.00;99.90;;;;;;5029542;28;20055;-36
2023/04/30 12:25:19;;;;;;;4.07;1.27;;;18.90;99.90;;;;;;5037924;28;20057;-36
2023/04/30 12:27:47;;;;;;;3.95;1.63;;;18.90;99.90;;;;;;5029914;28;20626;-36
2023/04/30 12:30:13;;;;;;;3.92;1.35;;;19.10;99.90;;;;;;5029057;28;20042;-36
2023/04/30 12:32:44;;;;;;;2.45;1.10;;;19.20;99.90;;;;;;5030002;28;20499;-36
2023/04/30 12:35:15;;;;;;;4.32;1.10;;;19.20;99.90;;;;;;5030960;28;20057;-36
2023/04/30 12:37:45;;;;;;;2.38;1.10;;;19.50;99.90;;;;;;5049508;28;20223;-36
2023/04/30 12:40:12;;;;;;;4.18;1.33;;;19.70;99.90;;;;;;5047912;28;20044;-36
2023/04/30 12:42:40;;;;;;;4.53;1.33;;;19.80;99.90;;;;;;5029946;28;20400;-35
2023/04/30 12:45:06;;;;;;;3.92;1.23;;;20.00;99.90;;;;;;5029114;28;20064;-35
2023/04/30 12:47:37;;;;;;;4.60;1.40;;;20.20;99.90;;;;;;5034531;28;20042;-36
2023/04/30 12:50:03;;;;;;;3.15;1.17;;;20.10;99.90;;;;;;5025233;28;20050;-36
2023/04/30 12:52:32;;;;;;;4.97;1.50;;;20.20;99.90;;;;;;5042204;28;20068;-36
2023/04/30 12:55:13;;;;;;;7.57;1.73;;;20.30;99.90;;;;;;5028988;28;20048;-36